Murrieta Hot Springs, California
Current Conditions -  °F | °C
As of 11:35 AM on Friday 24 Oct 2014 (Local Time) from KF70 Reporting Station
Clear Clear  
Wind Chill: 84°   Ceiling: Unl
Heat Index: 84°   Visibility: 10mi
Dew Point: 37°   Wind: 3mph
Humidity: 19%   Direction: 200°SSW
Pressure: 30.03"   Gusts: NA
Location:  33.5484°N, 117.268°W
Report Text: KF70 241835Z AUTO 20003KT 10SM CLR 29/03 A3003 RMK AO1
Loading
Personal Weather Stations






























Interactive Weather Map
Tropical Storm Tracking
New forecast layout! Learn more

10-Day Weather Forecast

Advertisements
Track Severe Weather on mobile